Terminal Aerodrome Forecast
Issued by NWS Blacksburg, VA

Home | Current Version | Previous Version | Text Only | Print | Product List | Glossary On
Versions: 1 2 3 4 5 6 7 8 9 10 11 12 13 14 15 16 17 18
000
FTUS41 KRNK 090705 AAA
TAFBLF
TAF AMD
KBLF 090705Z 0907/1006 30012KT P6SM -SHSN OVC020
     FM091500 29011G20KT P6SM -SHSN BKN040
     FM100100 29006KT P6SM SCT090=

USA.gov is the U.S. government's official web portal to all federal, state and local government web resources and services.